createdAt,value
2019-04-27T00:01:26.101Z,30.23
2019-04-27T00:04:19.227Z,28.63
2019-04-27T00:06:49.210Z,30.30
2019-04-27T00:09:34.086Z,30.20
2019-04-27T00:12:07.918Z,31.73
2019-04-27T00:14:39.320Z,30.33
2019-04-27T00:17:44.924Z,33.27
2019-04-27T00:20:30.426Z,31.77
2019-04-27T00:23:05.766Z,31.00
2019-04-27T00:25:36.930Z,31.53
2019-04-27T00:28:08.251Z,33.80
2019-04-27T00:30:39.342Z,34.70
2019-04-27T00:33:13.616Z,34.83
2019-04-27T00:35:56.004Z,34.33
2019-04-27T00:38:43.492Z,31.57
2019-04-27T00:41:19.003Z,31.20
2019-04-27T00:43:49.142Z,32.97
2019-04-27T00:46:20.878Z,33.93
2019-04-27T00:48:53.432Z,32.63
2019-04-27T00:51:24.974Z,32.23
2019-04-27T00:53:56.155Z,32.60
2019-04-27T00:56:44.807Z,30.90
2019-04-27T00:59:34.684Z,32.07
2019-04-27T01:02:28.784Z,33.30
2019-04-27T01:05:00.023Z,33.27
2019-04-27T01:07:33.323Z,36.00
2019-04-27T01:10:05.334Z,37.77
2019-04-27T01:12:37.710Z,38.63
2019-04-27T01:15:08.902Z,37.43
2019-04-27T01:17:39.975Z,37.70
2019-04-27T01:20:11.694Z,43.03
2019-04-27T01:22:42.990Z,40.03
2019-04-27T01:25:14.126Z,37.43
2019-04-27T01:28:09.957Z,35.90
2019-04-27T01:30:46.580Z,37.10
2019-04-27T01:33:17.586Z,36.47
2019-04-27T01:35:49.137Z,34.50
2019-04-27T01:38:20.345Z,31.63
2019-04-27T01:40:52.057Z,33.40
2019-04-27T01:43:23.862Z,33.73
2019-04-27T01:45:55.578Z,32.70
2019-04-27T01:48:28.258Z,32.47
2019-04-27T01:51:00.571Z,32.50
2019-04-27T01:53:40.834Z,33.63
2019-04-27T01:56:12.649Z,33.07
2019-04-27T01:58:43.973Z,33.77
2019-04-27T02:01:45.140Z,30.67
2019-04-27T02:04:35.301Z,31.43
2019-04-27T02:07:09.066Z,34.33
2019-04-27T02:09:43.679Z,34.90
2019-04-27T02:12:15.421Z,37.00
2019-04-27T02:14:46.786Z,35.23
2019-04-27T02:17:18.752Z,36.40
2019-04-27T02:19:50.092Z,35.53
2019-04-27T02:22:21.373Z,34.00
2019-04-27T02:24:52.525Z,32.27
2019-04-27T02:27:25.035Z,35.13
2019-04-27T02:30:13.679Z,35.17
2019-04-27T02:33:02.895Z,31.90
2019-04-27T02:35:34.177Z,29.80
2019-04-27T02:38:05.352Z,34.60
2019-04-27T02:40:56.579Z,35.93
2019-04-27T02:43:43.094Z,34.87
2019-04-27T02:46:14.847Z,36.63
2019-04-27T02:48:56.713Z,39.07
2019-04-27T02:51:29.956Z,38.53
2019-04-27T02:54:01.719Z,34.67
2019-04-27T02:56:32.852Z,37.67
2019-04-27T02:59:04.519Z,36.80
2019-04-27T03:01:46.206Z,33.77
2019-04-27T03:04:14.784Z,35.30
2019-04-27T03:06:46.458Z,35.00
2019-04-27T03:09:20.487Z,34.93
2019-04-27T03:11:52.354Z,34.90
2019-04-27T03:14:51.577Z,37.80
2019-04-27T03:17:33.883Z,34.60
2019-04-27T03:20:29.863Z,33.43
2019-04-27T03:23:03.671Z,32.17
2019-04-27T03:25:43.293Z,33.30
2019-04-27T03:28:16.433Z,32.87
2019-04-27T03:30:51.641Z,34.30
2019-04-27T03:33:22.494Z,34.17
2019-04-27T03:35:54.484Z,35.87
2019-04-27T03:38:26.377Z,40.27
2019-04-27T03:41:00.298Z,35.47
2019-04-27T03:43:31.557Z,33.93
2019-04-27T03:46:03.381Z,36.13
2019-04-27T03:48:35.127Z,32.20
2019-04-27T03:51:24.003Z,32.90
2019-04-27T03:54:29.849Z,31.03
2019-04-27T03:57:05.540Z,31.87
2019-04-27T04:00:10.122Z,32.47
2019-04-27T04:02:40.769Z,30.77
2019-04-27T04:05:12.776Z,31.20
2019-04-27T04:07:44.699Z,32.53
2019-04-27T04:10:16.488Z,28.60
2019-04-27T04:12:56.745Z,31.00
2019-04-27T04:15:51.890Z,29.23
2019-04-27T04:18:24.086Z,26.77
2019-04-27T04:20:55.227Z,26.80
2019-04-27T04:23:26.213Z,26.17
2019-04-27T04:25:59.686Z,31.17
2019-04-27T04:28:31.109Z,28.77
2019-04-27T04:31:03.063Z,27.40
2019-04-27T04:33:34.709Z,27.50
2019-04-27T04:36:05.988Z,30.17
2019-04-27T04:38:37.186Z,33.30
2019-04-27T04:41:11.252Z,29.97
2019-04-27T04:43:49.108Z,32.10
2019-04-27T04:46:42.881Z,33.20
2019-04-27T04:49:14.101Z,31.17
2019-04-27T04:51:45.338Z,28.50
2019-04-27T04:54:16.488Z,30.57
2019-04-27T04:56:49.316Z,29.73
2019-04-27T04:59:20.738Z,28.50
2019-04-27T05:01:51.926Z,27.80
2019-04-27T05:04:23.279Z,27.87
2019-04-27T05:06:54.518Z,27.23
2019-04-27T05:09:26.159Z,27.30
2019-04-27T05:11:58.757Z,27.33
2019-04-27T05:14:30.049Z,25.37
2019-04-27T05:17:01.147Z,25.23
2019-04-27T05:19:33.574Z,26.50
2019-04-27T05:22:04.961Z,29.20
2019-04-27T05:24:36.548Z,26.80
2019-04-27T05:27:09.203Z,25.50
2019-04-27T05:29:41.156Z,26.43
2019-04-27T05:32:12.594Z,25.67
2019-04-27T05:34:43.707Z,25.33
2019-04-27T05:37:14.800Z,22.20
2019-04-27T05:39:45.940Z,25.93
2019-04-27T05:42:19.870Z,24.60
2019-04-27T05:45:20.003Z,24.03
2019-04-27T05:48:13.916Z,23.83
2019-04-27T05:50:45.957Z,26.73
2019-04-27T05:53:18.880Z,26.30
2019-04-27T05:55:50.331Z,23.13
2019-04-27T05:58:21.460Z,19.27
2019-04-27T06:00:52.689Z,21.07
2019-04-27T06:03:23.796Z,19.43
2019-04-27T06:05:54.788Z,19.23
2019-04-27T06:08:26.466Z,17.30
2019-04-27T06:10:59.087Z,15.70
2019-04-27T06:13:31.110Z,16.50
2019-04-27T06:16:02.396Z,15.30
2019-04-27T06:18:33.610Z,14.53
2019-04-27T06:21:05.239Z,14.90
2019-04-27T06:23:36.589Z,15.37
2019-04-27T06:26:09.188Z,13.17
2019-04-27T06:28:42.178Z,12.97
2019-04-27T06:31:13.233Z,12.03
2019-04-27T06:33:44.478Z,11.37
2019-04-27T06:36:16.121Z,11.27
2019-04-27T06:38:48.547Z,10.47
2019-04-27T06:41:19.762Z,10.03
2019-04-27T06:43:51.028Z,10.27
2019-04-27T06:46:22.239Z,10.03
2019-04-27T06:48:53.461Z,9.93
2019-04-27T06:51:24.437Z,9.23
2019-04-27T06:53:55.508Z,10.50
2019-04-27T06:56:26.653Z,9.70
2019-04-27T06:58:59.584Z,10.30
2019-04-27T07:01:30.803Z,11.63
2019-04-27T07:04:02.203Z,10.17
2019-04-27T07:06:33.282Z,11.20
2019-04-27T07:09:06.884Z,10.47
2019-04-27T07:11:39.392Z,11.63
2019-04-27T07:14:11.845Z,10.90
2019-04-27T07:16:42.990Z,10.50
2019-04-27T07:19:14.808Z,10.40
2019-04-27T07:21:45.860Z,10.30
2019-04-27T07:24:17.537Z,10.90
2019-04-27T07:26:49.853Z,10.87
2019-04-27T07:29:23.210Z,12.03
2019-04-27T07:31:54.258Z,10.30
2019-04-27T07:34:28.630Z,11.57
2019-04-27T07:37:00.031Z,11.90
2019-04-27T07:39:31.801Z,11.33
2019-04-27T07:42:03.556Z,13.63
2019-04-27T07:44:49.988Z,13.87
2019-04-27T07:47:23.905Z,13.30
2019-04-27T07:49:55.683Z,13.87
2019-04-27T07:52:28.722Z,13.93
2019-04-27T07:55:00.483Z,14.10
2019-04-27T07:57:32.669Z,13.70
2019-04-27T08:00:04.603Z,14.00
2019-04-27T08:02:36.523Z,13.90
2019-04-27T08:05:09.423Z,14.40
2019-04-27T08:07:41.264Z,15.03
2019-04-27T08:10:13.217Z,14.33
2019-04-27T08:12:45.003Z,13.63
2019-04-27T08:15:19.010Z,18.37
2019-04-27T08:17:51.009Z,13.57
2019-04-27T08:20:22.766Z,13.10
2019-04-27T08:22:54.436Z,13.67
2019-04-27T08:25:26.188Z,14.83
2019-04-27T08:28:19.340Z,15.07
2019-04-27T08:30:58.553Z,14.63
2019-04-27T08:33:30.245Z,14.43
2019-04-27T08:36:03.309Z,15.37
2019-04-27T08:38:35.243Z,15.03
2019-04-27T08:41:10.103Z,14.20
2019-04-27T08:43:42.000Z,14.93
2019-04-27T08:46:13.257Z,13.83
2019-04-27T08:48:44.848Z,13.77
2019-04-27T08:51:16.598Z,13.93
2019-04-27T08:53:49.982Z,14.87
2019-04-27T08:56:21.727Z,14.70
2019-04-27T08:58:53.397Z,14.30
2019-04-27T09:01:24.658Z,16.47
2019-04-27T09:03:56.332Z,15.57
2019-04-27T09:06:28.891Z,15.73
2019-04-27T09:09:09.516Z,14.87
2019-04-27T09:11:49.404Z,16.93
2019-04-27T09:14:42.876Z,14.53
2019-04-27T09:17:24.618Z,15.87
2019-04-27T09:20:16.537Z,16.53
2019-04-27T09:22:49.294Z,18.57
2019-04-27T09:25:21.130Z,16.67
2019-04-27T09:27:53.050Z,19.87
2019-04-27T09:30:24.933Z,20.77
2019-04-27T09:32:56.675Z,18.47
2019-04-27T09:35:28.077Z,19.80
2019-04-27T09:37:59.886Z,19.83
2019-04-27T09:40:31.504Z,20.40
2019-04-27T09:43:02.734Z,21.07
2019-04-27T09:45:33.934Z,20.23
2019-04-27T09:48:06.657Z,23.00
2019-04-27T09:50:38.404Z,22.00
2019-04-27T09:53:10.417Z,21.07
2019-04-27T09:55:42.075Z,21.27
2019-04-27T09:58:13.986Z,21.23
2019-04-27T10:00:45.843Z,20.37
2019-04-27T10:03:17.942Z,20.27
2019-04-27T10:05:49.795Z,21.10
2019-04-27T10:08:21.548Z,21.50
2019-04-27T10:10:53.185Z,22.73
2019-04-27T10:13:25.660Z,21.73
2019-04-27T10:15:57.885Z,21.83
2019-04-27T10:18:30.721Z,20.20
2019-04-27T10:21:02.404Z,22.47
2019-04-27T10:23:34.263Z,22.53
2019-04-27T10:26:06.847Z,21.60
2019-04-27T10:28:38.680Z,19.87
2019-04-27T10:31:10.553Z,21.37
2019-04-27T10:33:42.298Z,21.27
2019-04-27T10:36:14.139Z,21.57
2019-04-27T10:38:45.970Z,22.17
2019-04-27T10:41:17.512Z,21.50
2019-04-27T10:43:48.795Z,20.27
2019-04-27T10:46:20.389Z,21.47
2019-04-27T10:48:52.144Z,20.63
2019-04-27T10:51:23.930Z,19.90
2019-04-27T10:53:55.806Z,20.67
2019-04-27T10:56:27.997Z,20.40
2019-04-27T10:59:00.220Z,21.80
2019-04-27T11:01:32.604Z,21.13
2019-04-27T11:04:26.605Z,20.10
2019-04-27T11:07:05.476Z,19.83
2019-04-27T11:09:39.112Z,18.53
2019-04-27T11:12:11.097Z,19.47
2019-04-27T11:14:42.906Z,19.53
2019-04-27T11:17:16.300Z,18.97
2019-04-27T11:19:47.976Z,20.67
2019-04-27T11:22:19.792Z,19.97
2019-04-27T11:24:51.405Z,19.33
2019-04-27T11:27:23.085Z,19.50
2019-04-27T11:29:56.302Z,17.53
2019-04-27T11:32:29.194Z,16.63
2019-04-27T11:35:07.164Z,16.77
2019-04-27T11:37:38.893Z,16.37
2019-04-27T11:40:11.774Z,16.07
2019-04-27T11:42:43.455Z,16.63
2019-04-27T11:45:18.308Z,16.33
2019-04-27T11:47:50.081Z,17.83
2019-04-27T11:50:21.984Z,16.10
2019-04-27T11:52:53.672Z,15.80
2019-04-27T11:55:27.175Z,17.20
2019-04-27T11:57:58.566Z,16.23
2019-04-27T12:00:31.564Z,17.57
2019-04-27T12:03:03.165Z,17.90
2019-04-27T12:05:36.257Z,18.13
2019-04-27T12:08:08.399Z,17.20
2019-04-27T12:10:41.278Z,16.77
2019-04-27T12:13:12.957Z,15.33
2019-04-27T12:15:46.472Z,16.40
2019-04-27T12:18:18.030Z,14.97
2019-04-27T12:20:49.382Z,14.07
2019-04-27T12:23:32.780Z,15.73
2019-04-27T12:25:56.308Z,14.27
2019-04-27T12:28:37.790Z,20.67
2019-04-27T12:31:17.100Z,16.13
2019-04-27T12:33:48.856Z,15.37
2019-04-27T12:36:20.623Z,14.97
2019-04-27T12:38:52.299Z,14.93
2019-04-27T12:41:23.503Z,14.90
2019-04-27T12:43:56.102Z,15.87
2019-04-27T12:46:27.570Z,15.00
2019-04-27T12:48:59.916Z,16.03
2019-04-27T12:51:31.000Z,14.97
2019-04-27T12:54:07.763Z,14.93
2019-04-27T12:56:57.062Z,15.77
2019-04-27T12:59:46.655Z,16.13
2019-04-27T13:02:19.927Z,16.73
2019-04-27T13:04:51.715Z,16.27
2019-04-27T13:07:23.426Z,17.23
2019-04-27T13:09:56.287Z,13.43
2019-04-27T13:12:28.162Z,15.60
2019-04-27T13:14:59.673Z,16.77
2019-04-27T13:17:30.972Z,17.27
2019-04-27T13:20:02.276Z,16.20
2019-04-27T13:22:36.997Z,16.17
2019-04-27T13:25:08.142Z,14.83
2019-04-27T13:27:39.425Z,15.33
2019-04-27T13:30:11.640Z,14.73
2019-04-27T13:32:43.033Z,14.60
2019-04-27T13:35:15.833Z,14.67
2019-04-27T13:37:48.205Z,14.67
2019-04-27T13:40:20.099Z,14.40
2019-04-27T13:43:44.364Z,13.77
2019-04-27T13:46:52.397Z,12.80
2019-04-27T13:49:41.625Z,16.10
2019-04-27T13:52:26.387Z,13.40
2019-04-27T13:54:58.047Z,13.47
2019-04-27T13:57:29.686Z,13.17
2019-04-27T14:00:01.288Z,13.00
2019-04-27T14:02:34.932Z,12.80
2019-04-27T14:05:07.408Z,12.20
2019-04-27T14:07:40.741Z,12.83
2019-04-27T14:10:12.400Z,12.57
2019-04-27T14:12:44.156Z,14.63
2019-04-27T14:15:16.111Z,15.43
2019-04-27T14:17:49.980Z,15.47
2019-04-27T14:20:22.084Z,12.97
2019-04-27T14:22:55.673Z,14.37
2019-04-27T14:25:28.068Z,13.70
2019-04-27T14:27:59.783Z,15.30
2019-04-27T14:30:31.455Z,15.63
2019-04-27T14:33:03.061Z,15.67
2019-04-27T14:35:35.232Z,14.10
2019-04-27T14:38:06.607Z,14.30
2019-04-27T14:40:39.253Z,13.63
2019-04-27T14:43:11.536Z,13.87
2019-04-27T14:45:43.878Z,13.97
2019-04-27T14:48:15.796Z,13.40
2019-04-27T14:50:48.517Z,13.30
2019-04-27T14:53:21.039Z,14.37
2019-04-27T14:55:52.675Z,12.07
2019-04-27T14:58:24.130Z,50.03
2019-04-27T15:00:55.365Z,18.10
2019-04-27T15:03:26.578Z,14.07
2019-04-27T15:05:57.860Z,14.20
2019-04-27T15:08:28.867Z,15.77
2019-04-27T15:11:00.159Z,15.07
2019-04-27T15:13:31.794Z,18.07
2019-04-27T15:16:06.663Z,12.73
2019-04-27T15:18:43.579Z,12.77
2019-04-27T15:21:13.353Z,12.73
2019-04-27T15:23:44.803Z,11.23
2019-04-27T15:26:20.303Z,14.00
2019-04-27T15:28:51.182Z,12.53
2019-04-27T15:31:29.920Z,11.00
2019-04-27T15:34:11.123Z,13.17
2019-04-27T15:36:58.206Z,11.10
2019-04-27T15:40:08.210Z,13.20
2019-04-27T15:42:49.041Z,10.90
2019-04-27T15:45:15.921Z,12.43
2019-04-27T15:47:49.305Z,11.77
2019-04-27T15:50:23.512Z,10.80
2019-04-27T15:52:52.544Z,11.87
2019-04-27T15:55:34.555Z,12.33
2019-04-27T15:57:57.135Z,13.27
2019-04-27T16:00:29.046Z,11.63
2019-04-27T16:03:00.251Z,14.83
2019-04-27T16:05:33.350Z,11.63
2019-04-27T16:08:07.983Z,12.37
2019-04-27T16:10:40.310Z,13.23
2019-04-27T16:13:15.091Z,17.07
2019-04-27T16:15:50.159Z,12.50
2019-04-27T16:18:18.643Z,11.60
2019-04-27T16:20:51.049Z,13.03
2019-04-27T16:23:22.988Z,13.20
2019-04-27T16:25:55.170Z,12.50
2019-04-27T16:28:27.023Z,14.50
2019-04-27T16:30:58.609Z,11.90
2019-04-27T16:33:30.766Z,13.13
2019-04-27T16:36:07.053Z,13.03
2019-04-27T16:38:56.608Z,13.80
2019-04-27T16:41:28.394Z,14.73
2019-04-27T16:44:02.330Z,15.70
2019-04-27T16:46:34.798Z,14.77
2019-04-27T16:49:13.281Z,12.00
2019-04-27T16:51:40.419Z,13.57
2019-04-27T16:54:17.755Z,11.77
2019-04-27T16:56:49.696Z,13.60
2019-04-27T16:59:39.795Z,13.57
2019-04-27T17:01:51.873Z,12.93
2019-04-27T17:04:23.545Z,13.23
2019-04-27T17:06:55.398Z,13.37
2019-04-27T17:09:28.761Z,13.70
2019-04-27T17:11:59.841Z,13.90
2019-04-27T17:15:05.800Z,12.97
2019-04-27T17:17:59.965Z,13.80
2019-04-27T17:20:31.419Z,12.80
2019-04-27T17:23:03.323Z,13.67
2019-04-27T17:25:39.812Z,14.80
2019-04-27T17:28:13.484Z,13.83
2019-04-27T17:30:45.119Z,15.83
2019-04-27T17:33:23.606Z,15.30
2019-04-27T17:35:57.670Z,13.53
2019-04-27T17:38:30.470Z,12.60
2019-04-27T17:41:04.623Z,12.03
2019-04-27T17:43:37.372Z,12.07
2019-04-27T17:46:11.539Z,11.83
2019-04-27T17:48:48.364Z,11.67
2019-04-27T17:51:19.554Z,11.07
2019-04-27T17:53:51.303Z,10.23
2019-04-27T17:56:33.282Z,10.40
2019-04-27T17:58:55.583Z,10.63
2019-04-27T18:01:30.160Z,9.73
2019-04-27T18:04:02.961Z,10.90
2019-04-27T18:06:33.310Z,10.60
2019-04-27T18:09:08.300Z,10.80
2019-04-27T18:11:41.023Z,10.40
2019-04-27T18:14:14.687Z,11.43
2019-04-27T18:16:45.573Z,10.20
2019-04-27T18:19:22.118Z,9.87
2019-04-27T18:22:00.982Z,9.63
2019-04-27T18:24:55.628Z,10.37
2019-04-27T18:27:38.910Z,11.13
2019-04-27T18:30:21.466Z,10.47
2019-04-27T18:32:52.826Z,9.63
2019-04-27T18:35:26.137Z,10.97
2019-04-27T18:37:58.425Z,13.43
2019-04-27T18:40:32.336Z,11.40
2019-04-27T18:43:06.356Z,12.27
2019-04-27T18:45:39.904Z,14.00
2019-04-27T18:48:14.763Z,10.17
2019-04-27T18:50:53.969Z,9.67
2019-04-27T18:53:28.820Z,9.17
2019-04-27T18:56:05.143Z,8.83
2019-04-27T18:58:34.006Z,9.77
2019-04-27T19:01:05.442Z,9.63
2019-04-27T19:03:36.703Z,8.27
2019-04-27T19:06:08.532Z,9.10
2019-04-27T19:08:40.357Z,8.93
2019-04-27T19:11:11.747Z,8.70
2019-04-27T19:13:43.056Z,8.97
2019-04-27T19:16:14.485Z,8.70
2019-04-27T19:18:47.966Z,8.70
2019-04-27T19:21:23.539Z,9.90
2019-04-27T19:23:55.059Z,8.23
2019-04-27T19:26:58.755Z,9.07
2019-04-27T19:29:35.565Z,8.83
2019-04-27T19:32:08.082Z,9.47
2019-04-27T19:34:39.524Z,8.33
2019-04-27T19:37:11.202Z,8.83
2019-04-27T19:39:43.039Z,9.40
2019-04-27T19:42:14.910Z,10.17
2019-04-27T19:44:48.085Z,10.03
2019-04-27T19:47:19.819Z,9.13
2019-04-27T19:49:51.513Z,9.70
2019-04-27T19:52:23.406Z,10.10
2019-04-27T19:54:54.852Z,10.40
2019-04-27T19:57:34.679Z,9.60
2019-04-27T20:00:01.112Z,9.40
2019-04-27T20:02:34.758Z,9.60
2019-04-27T20:05:07.883Z,9.53
2019-04-27T20:07:39.167Z,9.13
2019-04-27T20:10:11.468Z,10.00
2019-04-27T20:12:43.316Z,9.73
2019-04-27T20:15:15.164Z,10.23
2019-04-27T20:17:46.733Z,12.20
2019-04-27T20:20:18.070Z,10.23
2019-04-27T20:22:49.422Z,10.83
2019-04-27T20:25:21.254Z,10.80
2019-04-27T20:27:52.794Z,11.17
2019-04-27T20:30:24.375Z,11.47
2019-04-27T20:32:56.016Z,11.10
2019-04-27T20:35:27.849Z,10.37
2019-04-27T20:37:59.576Z,10.50
2019-04-27T20:40:31.638Z,10.80
2019-04-27T20:43:03.010Z,10.20
2019-04-27T20:45:34.594Z,11.17
2019-04-27T20:48:05.849Z,10.43
2019-04-27T20:50:37.174Z,10.00
2019-04-27T20:53:12.603Z,10.83
2019-04-27T20:55:43.993Z,10.10
2019-04-27T20:58:15.149Z,10.67
2019-04-27T21:00:46.404Z,10.10
2019-04-27T21:03:32.765Z,9.37
2019-04-27T21:06:12.972Z,9.60
2019-04-27T21:08:44.368Z,10.10
2019-04-27T21:11:15.647Z,9.93
2019-04-27T21:13:47.246Z,8.30
2019-04-27T21:16:18.556Z,9.00
2019-04-27T21:18:51.318Z,9.60
2019-04-27T21:21:22.414Z,8.90
2019-04-27T21:23:53.723Z,9.30
2019-04-27T21:26:24.757Z,9.50
2019-04-27T21:28:55.968Z,7.60
2019-04-27T21:31:27.113Z,8.33
2019-04-27T21:33:58.208Z,9.30
2019-04-27T21:36:32.365Z,7.80
2019-04-27T21:39:04.377Z,8.33
2019-04-27T21:41:37.047Z,8.70
2019-04-27T21:44:08.247Z,7.73
2019-04-27T21:46:41.185Z,7.70
2019-04-27T21:49:12.710Z,8.13
2019-04-27T21:52:05.045Z,7.97
2019-04-27T21:54:36.851Z,7.60
2019-04-27T21:57:08.097Z,7.50
2019-04-27T21:59:39.319Z,7.73
2019-04-27T22:02:12.160Z,8.10
2019-04-27T22:04:43.490Z,8.33
2019-04-27T22:07:14.684Z,9.27
2019-04-27T22:09:45.759Z,8.20
2019-04-27T22:12:17.008Z,9.07
2019-04-27T22:14:48.610Z,8.13
2019-04-27T22:17:19.923Z,8.57
2019-04-27T22:19:51.459Z,8.47
2019-04-27T22:22:31.916Z,9.00
2019-04-27T22:25:07.640Z,9.60
2019-04-27T22:27:41.364Z,9.27
2019-04-27T22:30:12.754Z,9.20
2019-04-27T22:32:43.858Z,9.80
2019-04-27T22:35:15.024Z,9.50
2019-04-27T22:37:46.285Z,9.00
2019-04-27T22:40:34.816Z,9.27
2019-04-27T22:43:41.266Z,8.13
2019-04-27T22:46:15.218Z,8.63
2019-04-27T22:48:46.397Z,9.23
2019-04-27T22:51:17.410Z,8.90
2019-04-27T22:53:48.489Z,8.60
2019-04-27T22:56:22.298Z,8.30
2019-04-27T22:59:12.744Z,8.13
2019-04-27T23:01:56.364Z,9.47
2019-04-27T23:04:34.659Z,7.80
2019-04-27T23:07:05.676Z,8.27
2019-04-27T23:09:37.091Z,8.13
2019-04-27T23:12:08.552Z,8.63
2019-04-27T23:14:41.368Z,7.93
2019-04-27T23:17:31.696Z,6.97
2019-04-27T23:20:03.173Z,7.30
2019-04-27T23:22:34.452Z,6.93
2019-04-27T23:25:06.975Z,6.27
2019-04-27T23:27:38.093Z,7.00
2019-04-27T23:30:11.205Z,6.37
2019-04-27T23:32:45.313Z,6.27
2019-04-27T23:35:16.544Z,6.43
2019-04-27T23:37:47.612Z,6.43
2019-04-27T23:40:18.845Z,6.43
2019-04-27T23:42:51.553Z,6.80
2019-04-27T23:45:22.943Z,6.30
2019-04-27T23:47:54.039Z,5.90
2019-04-27T23:50:26.774Z,6.27
2019-04-27T23:53:05.727Z,5.83
2019-04-27T23:55:37.570Z,5.77
2019-04-27T23:58:08.810Z,6.43
